sensor_id;sensor_type;location;lat;lon;timestamp;P1;durP1;ratioP1;P2;durP2;ratioP2
78860;SDS011;68211;45.774;15.892;2023-04-25T00:00:52;5.45;;;2.60;;
78860;SDS011;68211;45.774;15.892;2023-04-25T00:03:19;6.78;;;3.08;;
78860;SDS011;68211;45.774;15.892;2023-04-25T00:05:47;4.70;;;2.78;;
78860;SDS011;68211;45.774;15.892;2023-04-25T00:08:14;5.90;;;2.95;;
78860;SDS011;68211;45.774;15.892;2023-04-25T00:10:40;6.32;;;3.22;;
78860;SDS011;68211;45.774;15.892;2023-04-25T00:13:07;5.32;;;2.95;;
78860;SDS011;68211;45.774;15.892;2023-04-25T00:15:33;3.00;;;2.70;;
78860;SDS011;68211;45.774;15.892;2023-04-25T00:17:59;4.78;;;2.88;;
78860;SDS011;68211;45.774;15.892;2023-04-25T00:20:26;4.25;;;2.92;;
78860;SDS011;68211;45.774;15.892;2023-04-25T00:22:54;8.77;;;2.88;;
78860;SDS011;68211;45.774;15.892;2023-04-25T00:25:20;3.83;;;2.70;;
78860;SDS011;68211;45.774;15.892;2023-04-25T00:27:46;3.72;;;3.25;;
78860;SDS011;68211;45.774;15.892;2023-04-25T00:30:13;3.20;;;2.70;;
78860;SDS011;68211;45.774;15.892;2023-04-25T00:32:40;5.00;;;3.10;;
78860;SDS011;68211;45.774;15.892;2023-04-25T00:35:06;6.03;;;3.85;;
78860;SDS011;68211;45.774;15.892;2023-04-25T00:37:33;4.45;;;3.60;;
78860;SDS011;68211;45.774;15.892;2023-04-25T00:40:01;4.57;;;3.72;;
78860;SDS011;68211;45.774;15.892;2023-04-25T00:42:27;3.90;;;3.13;;
78860;SDS011;68211;45.774;15.892;2023-04-25T00:44:54;11.27;;;3.25;;
78860;SDS011;68211;45.774;15.892;2023-04-25T00:47:21;5.47;;;2.95;;
78860;SDS011;68211;45.774;15.892;2023-04-25T00:49:47;7.47;;;3.67;;
78860;SDS011;68211;45.774;15.892;2023-04-25T00:52:14;6.03;;;3.33;;
78860;SDS011;68211;45.774;15.892;2023-04-25T00:54:40;4.55;;;3.53;;
78860;SDS011;68211;45.774;15.892;2023-04-25T00:57:08;5.97;;;3.58;;
78860;SDS011;68211;45.774;15.892;2023-04-25T00:59:35;7.45;;;3.63;;
78860;SDS011;68211;45.774;15.892;2023-04-25T01:02:04;5.78;;;3.40;;
78860;SDS011;68211;45.774;15.892;2023-04-25T01:04:30;5.43;;;3.50;;
78860;SDS011;68211;45.774;15.892;2023-04-25T01:06:57;8.13;;;2.90;;
78860;SDS011;68211;45.774;15.892;2023-04-25T01:09:24;7.20;;;3.60;;
78860;SDS011;68211;45.774;15.892;2023-04-25T01:11:50;11.05;;;3.60;;
78860;SDS011;68211;45.774;15.892;2023-04-25T01:14:18;10.18;;;3.50;;
78860;SDS011;68211;45.774;15.892;2023-04-25T01:16:44;4.93;;;3.75;;
78860;SDS011;68211;45.774;15.892;2023-04-25T01:19:11;6.82;;;3.53;;
78860;SDS011;68211;45.774;15.892;2023-04-25T01:21:39;5.90;;;3.17;;
78860;SDS011;68211;45.774;15.892;2023-04-25T01:24:05;6.63;;;3.30;;
78860;SDS011;68211;45.774;15.892;2023-04-25T01:26:32;4.90;;;3.45;;
78860;SDS011;68211;45.774;15.892;2023-04-25T01:28:59;5.60;;;3.25;;
78860;SDS011;68211;45.774;15.892;2023-04-25T01:31:26;4.28;;;3.47;;
78860;SDS011;68211;45.774;15.892;2023-04-25T01:33:53;5.35;;;3.22;;
78860;SDS011;68211;45.774;15.892;2023-04-25T01:36:19;5.82;;;3.55;;
78860;SDS011;68211;45.774;15.892;2023-04-25T01:38:47;8.98;;;3.70;;
78860;SDS011;68211;45.774;15.892;2023-04-25T01:41:14;4.63;;;3.83;;
78860;SDS011;68211;45.774;15.892;2023-04-25T01:43:40;10.57;;;3.58;;
78860;SDS011;68211;45.774;15.892;2023-04-25T01:46:07;9.70;;;3.45;;
78860;SDS011;68211;45.774;15.892;2023-04-25T01:48:33;8.50;;;3.65;;
78860;SDS011;68211;45.774;15.892;2023-04-25T01:51:00;7.50;;;3.47;;
78860;SDS011;68211;45.774;15.892;2023-04-25T01:53:26;8.88;;;3.60;;
78860;SDS011;68211;45.774;15.892;2023-04-25T01:55:54;12.15;;;3.60;;
78860;SDS011;68211;45.774;15.892;2023-04-25T01:58:20;5.47;;;3.53;;
78860;SDS011;68211;45.774;15.892;2023-04-25T02:00:47;8.68;;;3.72;;
78860;SDS011;68211;45.774;15.892;2023-04-25T02:03:13;4.60;;;3.40;;
78860;SDS011;68211;45.774;15.892;2023-04-25T02:05:40;10.02;;;3.53;;
78860;SDS011;68211;45.774;15.892;2023-04-25T02:08:07;4.82;;;3.08;;
78860;SDS011;68211;45.774;15.892;2023-04-25T02:10:34;6.00;;;3.40;;
78860;SDS011;68211;45.774;15.892;2023-04-25T02:13:02;3.22;;;2.92;;
78860;SDS011;68211;45.774;15.892;2023-04-25T02:15:28;3.63;;;3.00;;
78860;SDS011;68211;45.774;15.892;2023-04-25T02:17:55;5.68;;;3.65;;
78860;SDS011;68211;45.774;15.892;2023-04-25T02:20:21;4.82;;;3.17;;
78860;SDS011;68211;45.774;15.892;2023-04-25T02:22:48;6.28;;;3.20;;
78860;SDS011;68211;45.774;15.892;2023-04-25T02:25:14;3.20;;;2.90;;
78860;SDS011;68211;45.774;15.892;2023-04-25T02:27:41;5.35;;;3.55;;
78860;SDS011;68211;45.774;15.892;2023-04-25T02:30:09;5.47;;;3.25;;
78860;SDS011;68211;45.774;15.892;2023-04-25T02:32:36;5.97;;;2.70;;
78860;SDS011;68211;45.774;15.892;2023-04-25T02:35:02;3.92;;;2.67;;
78860;SDS011;68211;45.774;15.892;2023-04-25T02:37:29;5.70;;;2.63;;
78860;SDS011;68211;45.774;15.892;2023-04-25T02:39:55;4.18;;;2.40;;
78860;SDS011;68211;45.774;15.892;2023-04-25T02:42:21;3.58;;;2.60;;
78860;SDS011;68211;45.774;15.892;2023-04-25T02:44:48;3.75;;;2.40;;
78860;SDS011;68211;45.774;15.892;2023-04-25T02:47:16;2.78;;;2.40;;
78860;SDS011;68211;45.774;15.892;2023-04-25T02:49:42;3.22;;;2.50;;
78860;SDS011;68211;45.774;15.892;2023-04-25T02:52:08;2.80;;;2.60;;
78860;SDS011;68211;45.774;15.892;2023-04-25T02:54:35;6.53;;;2.50;;
78860;SDS011;68211;45.774;15.892;2023-04-25T02:57:01;8.57;;;2.60;;
78860;SDS011;68211;45.774;15.892;2023-04-25T02:59:28;2.33;;;2.13;;
78860;SDS011;68211;45.774;15.892;2023-04-25T03:01:54;5.60;;;2.60;;
78860;SDS011;68211;45.774;15.892;2023-04-25T03:04:22;3.00;;;2.70;;
78860;SDS011;68211;45.774;15.892;2023-04-25T03:06:49;5.28;;;2.63;;
78860;SDS011;68211;45.774;15.892;2023-04-25T03:09:15;6.13;;;2.50;;
78860;SDS011;68211;45.774;15.892;2023-04-25T03:11:42;3.35;;;2.20;;
78860;SDS011;68211;45.774;15.892;2023-04-25T03:14:08;2.97;;;2.25;;
78860;SDS011;68211;45.774;15.892;2023-04-25T03:16:35;2.55;;;1.85;;
78860;SDS011;68211;45.774;15.892;2023-04-25T03:19:01;2.45;;;2.15;;
78860;SDS011;68211;45.774;15.892;2023-04-25T03:21:29;2.28;;;2.08;;
78860;SDS011;68211;45.774;15.892;2023-04-25T03:23:55;7.68;;;2.50;;
78860;SDS011;68211;45.774;15.892;2023-04-25T03:26:22;2.90;;;1.88;;
78860;SDS011;68211;45.774;15.892;2023-04-25T03:28:48;2.15;;;1.90;;
78860;SDS011;68211;45.774;15.892;2023-04-25T03:31:15;2.08;;;1.70;;
78860;SDS011;68211;45.774;15.892;2023-04-25T03:33:41;2.40;;;2.15;;
78860;SDS011;68211;45.774;15.892;2023-04-25T03:36:08;2.72;;;2.10;;
78860;SDS011;68211;45.774;15.892;2023-04-25T03:38:36;3.28;;;2.20;;
78860;SDS011;68211;45.774;15.892;2023-04-25T03:41:02;2.95;;;2.10;;
78860;SDS011;68211;45.774;15.892;2023-04-25T03:43:28;3.22;;;1.98;;
78860;SDS011;68211;45.774;15.892;2023-04-25T03:45:55;5.28;;;2.05;;
78860;SDS011;68211;45.774;15.892;2023-04-25T03:48:21;4.78;;;2.08;;
78860;SDS011;68211;45.774;15.892;2023-04-25T03:50:48;3.58;;;2.60;;
78860;SDS011;68211;45.774;15.892;2023-04-25T03:53:14;6.85;;;2.85;;
78860;SDS011;68211;45.774;15.892;2023-04-25T03:55:42;4.82;;;2.90;;
78860;SDS011;68211;45.774;15.892;2023-04-25T03:58:09;9.45;;;2.80;;
78860;SDS011;68211;45.774;15.892;2023-04-25T04:00:35;4.63;;;2.97;;
78860;SDS011;68211;45.774;15.892;2023-04-25T04:03:01;8.27;;;2.35;;
78860;SDS011;68211;45.774;15.892;2023-04-25T04:05:28;5.78;;;2.80;;
78860;SDS011;68211;45.774;15.892;2023-04-25T04:07:55;3.67;;;2.53;;
78860;SDS011;68211;45.774;15.892;2023-04-25T04:10:21;3.90;;;2.20;;
78860;SDS011;68211;45.774;15.892;2023-04-25T04:12:49;4.45;;;2.45;;
78860;SDS011;68211;45.774;15.892;2023-04-25T04:15:16;3.33;;;2.55;;
78860;SDS011;68211;45.774;15.892;2023-04-25T04:17:42;7.45;;;2.70;;
78860;SDS011;68211;45.774;15.892;2023-04-25T04:20:09;9.55;;;2.70;;
78860;SDS011;68211;45.774;15.892;2023-04-25T04:22:35;4.47;;;2.78;;
78860;SDS011;68211;45.774;15.892;2023-04-25T04:25:02;3.70;;;2.30;;
78860;SDS011;68211;45.774;15.892;2023-04-25T04:27:28;3.05;;;2.75;;
78860;SDS011;68211;45.774;15.892;2023-04-25T04:29:56;4.40;;;2.45;;
78860;SDS011;68211;45.774;15.892;2023-04-25T04:32:23;3.92;;;2.50;;
78860;SDS011;68211;45.774;15.892;2023-04-25T04:34:49;2.80;;;2.60;;
78860;SDS011;68211;45.774;15.892;2023-04-25T04:37:15;8.18;;;2.50;;
78860;SDS011;68211;45.774;15.892;2023-04-25T04:39:42;3.22;;;2.50;;
78860;SDS011;68211;45.774;15.892;2023-04-25T04:42:08;2.83;;;2.30;;
78860;SDS011;68211;45.774;15.892;2023-04-25T04:44:35;9.27;;;2.30;;
78860;SDS011;68211;45.774;15.892;2023-04-25T04:47:02;3.22;;;2.05;;
78860;SDS011;68211;45.774;15.892;2023-04-25T04:49:29;2.75;;;2.10;;
78860;SDS011;68211;45.774;15.892;2023-04-25T04:51:55;4.47;;;2.25;;
78860;SDS011;68211;45.774;15.892;2023-04-25T04:54:25;3.03;;;2.60;;
78860;SDS011;68211;45.774;15.892;2023-04-25T04:56:51;3.70;;;2.30;;
78860;SDS011;68211;45.774;15.892;2023-04-25T04:59:17;3.53;;;2.15;;
78860;SDS011;68211;45.774;15.892;2023-04-25T05:01:44;6.28;;;2.10;;
78860;SDS011;68211;45.774;15.892;2023-04-25T05:04:11;2.53;;;2.10;;
78860;SDS011;68211;45.774;15.892;2023-04-25T05:06:38;3.53;;;1.75;;
78860;SDS011;68211;45.774;15.892;2023-04-25T05:09:05;3.88;;;2.10;;
78860;SDS011;68211;45.774;15.892;2023-04-25T05:11:31;8.88;;;2.53;;
78860;SDS011;68211;45.774;15.892;2023-04-25T05:13:59;3.45;;;1.90;;
78860;SDS011;68211;45.774;15.892;2023-04-25T05:16:25;2.38;;;2.17;;
78860;SDS011;68211;45.774;15.892;2023-04-25T05:18:52;2.40;;;2.20;;
78860;SDS011;68211;45.774;15.892;2023-04-25T05:21:19;2.30;;;2.10;;
78860;SDS011;68211;45.774;15.892;2023-04-25T05:23:46;3.40;;;2.10;;
78860;SDS011;68211;45.774;15.892;2023-04-25T05:26:12;3.42;;;2.33;;
78860;SDS011;68211;45.774;15.892;2023-04-25T05:28:39;2.65;;;1.80;;
78860;SDS011;68211;45.774;15.892;2023-04-25T05:31:05;2.10;;;2.00;;
78860;SDS011;68211;45.774;15.892;2023-04-25T05:33:32;2.67;;;2.03;;
78860;SDS011;68211;45.774;15.892;2023-04-25T05:35:58;2.28;;;2.08;;
78860;SDS011;68211;45.774;15.892;2023-04-25T05:38:26;2.50;;;2.10;;
78860;SDS011;68211;45.774;15.892;2023-04-25T05:40:52;7.45;;;2.42;;
78860;SDS011;68211;45.774;15.892;2023-04-25T05:43:19;1.80;;;1.52;;
78860;SDS011;68211;45.774;15.892;2023-04-25T05:45:45;2.00;;;1.75;;
78860;SDS011;68211;45.774;15.892;2023-04-25T05:48:11;4.50;;;1.90;;
78860;SDS011;68211;45.774;15.892;2023-04-25T05:50:38;1.92;;;1.83;;
78860;SDS011;68211;45.774;15.892;2023-04-25T05:53:04;2.40;;;2.10;;
78860;SDS011;68211;45.774;15.892;2023-04-25T05:55:32;4.10;;;2.30;;
78860;SDS011;68211;45.774;15.892;2023-04-25T05:57:58;2.10;;;1.70;;
78860;SDS011;68211;45.774;15.892;2023-04-25T06:00:25;1.65;;;1.30;;
78860;SDS011;68211;45.774;15.892;2023-04-25T06:02:51;1.08;;;0.90;;
78860;SDS011;68211;45.774;15.892;2023-04-25T06:05:18;1.77;;;1.33;;
78860;SDS011;68211;45.774;15.892;2023-04-25T06:07:44;2.78;;;1.17;;
78860;SDS011;68211;45.774;15.892;2023-04-25T06:10:11;1.40;;;1.30;;
78860;SDS011;68211;45.774;15.892;2023-04-25T06:12:38;2.17;;;1.08;;
78860;SDS011;68211;45.774;15.892;2023-04-25T06:15:05;1.38;;;1.00;;
78860;SDS011;68211;45.774;15.892;2023-04-25T06:17:52;0.80;;;0.80;;
78860;SDS011;68211;45.774;15.892;2023-04-25T06:20:18;2.15;;;1.10;;
78860;SDS011;68211;45.774;15.892;2023-04-25T06:22:45;1.70;;;1.00;;
78860;SDS011;68211;45.774;15.892;2023-04-25T06:25:11;1.95;;;1.00;;
78860;SDS011;68211;45.774;15.892;2023-04-25T06:27:39;1.00;;;1.00;;
78860;SDS011;68211;45.774;15.892;2023-04-25T06:30:06;3.15;;;1.08;;
78860;SDS011;68211;45.774;15.892;2023-04-25T06:32:32;2.67;;;1.00;;
78860;SDS011;68211;45.774;15.892;2023-04-25T06:34:59;1.25;;;1.20;;
78860;SDS011;68211;45.774;15.892;2023-04-25T06:37:25;1.05;;;1.02;;
78860;SDS011;68211;45.774;15.892;2023-04-25T06:39:51;1.50;;;0.90;;
78860;SDS011;68211;45.774;15.892;2023-04-25T06:42:18;2.50;;;0.90;;
78860;SDS011;68211;45.774;15.892;2023-04-25T06:44:46;1.00;;;1.00;;
78860;SDS011;68211;45.774;15.892;2023-04-25T06:47:12;1.85;;;1.00;;
78860;SDS011;68211;45.774;15.892;2023-04-25T06:49:38;1.05;;;1.00;;
78860;SDS011;68211;45.774;15.892;2023-04-25T06:52:05;0.95;;;0.85;;
78860;SDS011;68211;45.774;15.892;2023-04-25T06:54:31;1.15;;;1.00;;
78860;SDS011;68211;45.774;15.892;2023-04-25T06:56:58;8.48;;;1.00;;
78860;SDS011;68211;45.774;15.892;2023-04-25T06:59:24;2.45;;;1.02;;
78860;SDS011;68211;45.774;15.892;2023-04-25T07:01:52;1.08;;;1.00;;
78860;SDS011;68211;45.774;15.892;2023-04-25T07:04:18;2.20;;;1.10;;
78860;SDS011;68211;45.774;15.892;2023-04-25T07:06:45;1.17;;;1.05;;
78860;SDS011;68211;45.774;15.892;2023-04-25T07:09:12;2.30;;;1.00;;
78860;SDS011;68211;45.774;15.892;2023-04-25T07:11:38;1.60;;;1.02;;
78860;SDS011;68211;45.774;15.892;2023-04-25T07:14:05;0.98;;;0.90;;
78860;SDS011;68211;45.774;15.892;2023-04-25T07:16:31;1.00;;;1.00;;
78860;SDS011;68211;45.774;15.892;2023-04-25T07:18:59;1.27;;;1.00;;
78860;SDS011;68211;45.774;15.892;2023-04-25T07:21:25;1.40;;;0.98;;
78860;SDS011;68211;45.774;15.892;2023-04-25T07:23:52;1.33;;;0.98;;
78860;SDS011;68211;45.774;15.892;2023-04-25T07:26:18;3.85;;;1.30;;
78860;SDS011;68211;45.774;15.892;2023-04-25T07:28:45;1.10;;;1.00;;
78860;SDS011;68211;45.774;15.892;2023-04-25T07:31:11;2.42;;;0.98;;
78860;SDS011;68211;45.774;15.892;2023-04-25T07:33:37;1.80;;;1.00;;
78860;SDS011;68211;45.774;15.892;2023-04-25T07:36:06;1.85;;;1.00;;
78860;SDS011;68211;45.774;15.892;2023-04-25T07:38:32;0.93;;;0.93;;
78860;SDS011;68211;45.774;15.892;2023-04-25T07:40:59;4.03;;;1.00;;
78860;SDS011;68211;45.774;15.892;2023-04-25T07:43:25;2.40;;;1.02;;
78860;SDS011;68211;45.774;15.892;2023-04-25T07:45:51;1.50;;;1.00;;
78860;SDS011;68211;45.774;15.892;2023-04-25T07:48:18;4.15;;;1.27;;
78860;SDS011;68211;45.774;15.892;2023-04-25T07:50:45;1.42;;;1.00;;
78860;SDS011;68211;45.774;15.892;2023-04-25T07:53:13;0.90;;;0.90;;
78860;SDS011;68211;45.774;15.892;2023-04-25T07:55:39;1.65;;;1.10;;
78860;SDS011;68211;45.774;15.892;2023-04-25T07:58:06;1.38;;;1.20;;
78860;SDS011;68211;45.774;15.892;2023-04-25T08:00:32;5.20;;;1.80;;
78860;SDS011;68211;45.774;15.892;2023-04-25T08:02:58;6.45;;;1.30;;
78860;SDS011;68211;45.774;15.892;2023-04-25T08:05:25;0.80;;;0.80;;
78860;SDS011;68211;45.774;15.892;2023-04-25T08:07:52;1.00;;;0.90;;
78860;SDS011;68211;45.774;15.892;2023-04-25T08:10:22;1.02;;;0.85;;
78860;SDS011;68211;45.774;15.892;2023-04-25T08:12:49;1.75;;;0.98;;
78860;SDS011;68211;45.774;15.892;2023-04-25T08:15:15;1.60;;;1.23;;
78860;SDS011;68211;45.774;15.892;2023-04-25T08:17:42;2.75;;;1.10;;
78860;SDS011;68211;45.774;15.892;2023-04-25T08:20:08;2.75;;;1.08;;
78860;SDS011;68211;45.774;15.892;2023-04-25T08:22:35;2.28;;;1.05;;
78860;SDS011;68211;45.774;15.892;2023-04-25T08:25:02;1.30;;;1.20;;
78860;SDS011;68211;45.774;15.892;2023-04-25T08:27:29;1.33;;;1.23;;
78860;SDS011;68211;45.774;15.892;2023-04-25T08:29:56;1.15;;;1.05;;
78860;SDS011;68211;45.774;15.892;2023-04-25T08:32:22;1.00;;;1.00;;
78860;SDS011;68211;45.774;15.892;2023-04-25T08:34:49;1.42;;;0.80;;
78860;SDS011;68211;45.774;15.892;2023-04-25T08:37:16;2.03;;;0.90;;
78860;SDS011;68211;45.774;15.892;2023-04-25T08:39:42;1.88;;;1.02;;
78860;SDS011;68211;45.774;15.892;2023-04-25T08:42:09;4.03;;;0.90;;
78860;SDS011;68211;45.774;15.892;2023-04-25T08:44:38;0.80;;;0.80;;
78860;SDS011;68211;45.774;15.892;2023-04-25T08:47:04;0.88;;;0.88;;
78860;SDS011;68211;45.774;15.892;2023-04-25T08:49:31;3.63;;;0.98;;
78860;SDS011;68211;45.774;15.892;2023-04-25T08:51:58;6.18;;;2.25;;
78860;SDS011;68211;45.774;15.892;2023-04-25T08:54:25;1.15;;;1.05;;
78860;SDS011;68211;45.774;15.892;2023-04-25T08:56:56;4.50;;;1.58;;
78860;SDS011;68211;45.774;15.892;2023-04-25T08:59:22;0.80;;;0.80;;
78860;SDS011;68211;45.774;15.892;2023-04-25T09:01:50;1.85;;;1.00;;
78860;SDS011;68211;45.774;15.892;2023-04-25T09:04:17;1.00;;;1.00;;
78860;SDS011;68211;45.774;15.892;2023-04-25T09:06:44;1.48;;;0.75;;
78860;SDS011;68211;45.774;15.892;2023-04-25T09:09:10;0.82;;;0.82;;
78860;SDS011;68211;45.774;15.892;2023-04-25T09:11:37;1.23;;;0.95;;
78860;SDS011;68211;45.774;15.892;2023-04-25T09:14:10;1.30;;;1.20;;
78860;SDS011;68211;45.774;15.892;2023-04-25T09:16:39;1.52;;;1.02;;
78860;SDS011;68211;45.774;15.892;2023-04-25T09:19:25;0.77;;;0.77;;
78860;SDS011;68211;45.774;15.892;2023-04-25T09:22:05;0.93;;;0.93;;
78860;SDS011;68211;45.774;15.892;2023-04-25T09:24:35;4.07;;;1.40;;
78860;SDS011;68211;45.774;15.892;2023-04-25T09:27:05;1.08;;;1.05;;
78860;SDS011;68211;45.774;15.892;2023-04-25T09:29:33;3.53;;;0.90;;
78860;SDS011;68211;45.774;15.892;2023-04-25T09:32:13;1.98;;;1.00;;
78860;SDS011;68211;45.774;15.892;2023-04-25T09:34:41;5.07;;;1.27;;
78860;SDS011;68211;45.774;15.892;2023-04-25T09:37:08;1.30;;;0.80;;
78860;SDS011;68211;45.774;15.892;2023-04-25T09:39:35;1.95;;;0.82;;
78860;SDS011;68211;45.774;15.892;2023-04-25T09:42:02;0.85;;;0.85;;
78860;SDS011;68211;45.774;15.892;2023-04-25T09:44:29;1.92;;;0.93;;
78860;SDS011;68211;45.774;15.892;2023-04-25T09:46:55;0.98;;;0.90;;
78860;SDS011;68211;45.774;15.892;2023-04-25T09:49:22;0.90;;;0.90;;
78860;SDS011;68211;45.774;15.892;2023-04-25T09:51:55;1.15;;;0.80;;
78860;SDS011;68211;45.774;15.892;2023-04-25T09:54:21;1.95;;;0.90;;
78860;SDS011;68211;45.774;15.892;2023-04-25T09:56:48;2.10;;;0.60;;
78860;SDS011;68211;45.774;15.892;2023-04-25T09:59:17;0.80;;;0.80;;
78860;SDS011;68211;45.774;15.892;2023-04-25T10:01:45;1.40;;;1.00;;
78860;SDS011;68211;45.774;15.892;2023-04-25T10:04:12;2.72;;;1.10;;
78860;SDS011;68211;45.774;15.892;2023-04-25T10:06:40;1.70;;;0.95;;
78860;SDS011;68211;45.774;15.892;2023-04-25T10:09:09;1.27;;;0.90;;
78860;SDS011;68211;45.774;15.892;2023-04-25T10:11:36;0.95;;;0.95;;
78860;SDS011;68211;45.774;15.892;2023-04-25T10:14:04;1.38;;;1.17;;
78860;SDS011;68211;45.774;15.892;2023-04-25T10:16:31;2.10;;;1.10;;
78860;SDS011;68211;45.774;15.892;2023-04-25T10:18:58;1.35;;;0.95;;
78860;SDS011;68211;45.774;15.892;2023-04-25T10:21:24;2.63;;;1.00;;
78860;SDS011;68211;45.774;15.892;2023-04-25T10:23:53;1.70;;;1.00;;
78860;SDS011;68211;45.774;15.892;2023-04-25T10:26:21;0.70;;;0.70;;
78860;SDS011;68211;45.774;15.892;2023-04-25T10:28:55;1.20;;;0.95;;
78860;SDS011;68211;45.774;15.892;2023-04-25T10:31:24;2.00;;;1.00;;
78860;SDS011;68211;45.774;15.892;2023-04-25T10:33:51;2.15;;;1.05;;
78860;SDS011;68211;45.774;15.892;2023-04-25T10:36:19;2.83;;;0.90;;
78860;SDS011;68211;45.774;15.892;2023-04-25T10:38:49;2.40;;;1.00;;
78860;SDS011;68211;45.774;15.892;2023-04-25T10:43:46;3.55;;;0.85;;
78860;SDS011;68211;45.774;15.892;2023-04-25T10:46:19;2.35;;;0.95;;
78860;SDS011;68211;45.774;15.892;2023-04-25T10:48:48;0.93;;;0.93;;
78860;SDS011;68211;45.774;15.892;2023-04-25T10:51:21;0.90;;;0.90;;
78860;SDS011;68211;45.774;15.892;2023-04-25T10:53:56;1.85;;;1.10;;
78860;SDS011;68211;45.774;15.892;2023-04-25T10:56:24;1.50;;;1.05;;
78860;SDS011;68211;45.774;15.892;2023-04-25T10:59:04;1.63;;;1.00;;
78860;SDS011;68211;45.774;15.892;2023-04-25T11:01:35;0.90;;;0.90;;
78860;SDS011;68211;45.774;15.892;2023-04-25T11:04:02;1.42;;;0.90;;
78860;SDS011;68211;45.774;15.892;2023-04-25T11:06:29;1.30;;;0.90;;
78860;SDS011;68211;45.774;15.892;2023-04-25T11:08:57;3.13;;;0.95;;
78860;SDS011;68211;45.774;15.892;2023-04-25T11:11:26;2.63;;;1.00;;
78860;SDS011;68211;45.774;15.892;2023-04-25T11:13:52;0.93;;;0.88;;
78860;SDS011;68211;45.774;15.892;2023-04-25T11:16:20;2.58;;;0.93;;
78860;SDS011;68211;45.774;15.892;2023-04-25T11:18:56;1.98;;;1.20;;
78860;SDS011;68211;45.774;15.892;2023-04-25T11:23:50;1.50;;;1.40;;
78860;SDS011;68211;45.774;15.892;2023-04-25T11:26:22;4.93;;;1.10;;
78860;SDS011;68211;45.774;15.892;2023-04-25T11:28:56;4.78;;;1.25;;
78860;SDS011;68211;45.774;15.892;2023-04-25T11:31:25;1.17;;;0.95;;
78860;SDS011;68211;45.774;15.892;2023-04-25T11:33:52;1.42;;;1.08;;
78860;SDS011;68211;45.774;15.892;2023-04-25T11:36:19;2.20;;;1.00;;
78860;SDS011;68211;45.774;15.892;2023-04-25T11:38:46;3.10;;;1.00;;
78860;SDS011;68211;45.774;15.892;2023-04-25T11:41:15;1.17;;;1.10;;
78860;SDS011;68211;45.774;15.892;2023-04-25T11:43:42;2.05;;;1.20;;
78860;SDS011;68211;45.774;15.892;2023-04-25T11:46:09;1.65;;;1.05;;
78860;SDS011;68211;45.774;15.892;2023-04-25T11:48:40;1.23;;;1.02;;
78860;SDS011;68211;45.774;15.892;2023-04-25T11:51:07;1.02;;;1.02;;
78860;SDS011;68211;45.774;15.892;2023-04-25T11:53:33;1.75;;;1.20;;
78860;SDS011;68211;45.774;15.892;2023-04-25T11:56:00;1.08;;;1.00;;
78860;SDS011;68211;45.774;15.892;2023-04-25T11:58:27;3.70;;;1.35;;
78860;SDS011;68211;45.774;15.892;2023-04-25T12:00:53;2.90;;;1.15;;
78860;SDS011;68211;45.774;15.892;2023-04-25T12:03:20;2.58;;;1.30;;
78860;SDS011;68211;45.774;15.892;2023-04-25T12:05:48;2.60;;;1.08;;
78860;SDS011;68211;45.774;15.892;2023-04-25T12:08:16;1.25;;;1.15;;
78860;SDS011;68211;45.774;15.892;2023-04-25T12:10:43;2.17;;;1.15;;
78860;SDS011;68211;45.774;15.892;2023-04-25T12:13:19;3.63;;;1.23;;
78860;SDS011;68211;45.774;15.892;2023-04-25T12:15:46;1.13;;;1.10;;
78860;SDS011;68211;45.774;15.892;2023-04-25T12:18:13;2.17;;;1.30;;
78860;SDS011;68211;45.774;15.892;2023-04-25T12:20:41;1.40;;;1.30;;
78860;SDS011;68211;45.774;15.892;2023-04-25T12:23:09;2.72;;;1.20;;
78860;SDS011;68211;45.774;15.892;2023-04-25T12:25:36;3.72;;;1.20;;
78860;SDS011;68211;45.774;15.892;2023-04-25T12:28:09;2.05;;;1.23;;
78860;SDS011;68211;45.774;15.892;2023-04-25T12:33:17;2.42;;;1.00;;
78860;SDS011;68211;45.774;15.892;2023-04-25T12:35:43;1.30;;;1.20;;
78860;SDS011;68211;45.774;15.892;2023-04-25T12:38:12;2.72;;;1.17;;
78860;SDS011;68211;45.774;15.892;2023-04-25T12:40:47;3.97;;;1.30;;
78860;SDS011;68211;45.774;15.892;2023-04-25T12:43:14;1.90;;;1.00;;
78860;SDS011;68211;45.774;15.892;2023-04-25T12:45:40;3.22;;;1.40;;
78860;SDS011;68211;45.774;15.892;2023-04-25T12:48:07;4.03;;;1.20;;
78860;SDS011;68211;45.774;15.892;2023-04-25T12:50:33;2.70;;;1.40;;
78860;SDS011;68211;45.774;15.892;2023-04-25T12:53:01;3.85;;;1.40;;
78860;SDS011;68211;45.774;15.892;2023-04-25T12:55:30;1.40;;;1.30;;
78860;SDS011;68211;45.774;15.892;2023-04-25T12:57:56;4.25;;;1.30;;
78860;SDS011;68211;45.774;15.892;2023-04-25T13:00:23;3.72;;;1.45;;
78860;SDS011;68211;45.774;15.892;2023-04-25T13:02:49;4.40;;;1.60;;
78860;SDS011;68211;45.774;15.892;2023-04-25T13:05:16;3.17;;;1.38;;
78860;SDS011;68211;45.774;15.892;2023-04-25T13:07:44;5.05;;;1.35;;
78860;SDS011;68211;45.774;15.892;2023-04-25T13:10:11;3.10;;;1.37;;
78860;SDS011;68211;45.774;15.892;2023-04-25T13:12:38;6.60;;;1.40;;
78860;SDS011;68211;45.774;15.892;2023-04-25T13:15:05;1.30;;;1.20;;
78860;SDS011;68211;45.774;15.892;2023-04-25T13:17:32;4.60;;;1.50;;
78860;SDS011;68211;45.774;15.892;2023-04-25T13:19:58;3.13;;;1.30;;
78860;SDS011;68211;45.774;15.892;2023-04-25T13:22:25;2.42;;;1.25;;
78860;SDS011;68211;45.774;15.892;2023-04-25T13:24:51;1.30;;;1.30;;
78860;SDS011;68211;45.774;15.892;2023-04-25T13:27:21;2.35;;;1.25;;
78860;SDS011;68211;45.774;15.892;2023-04-25T13:29:48;5.82;;;1.50;;
78860;SDS011;68211;45.774;15.892;2023-04-25T13:32:15;4.18;;;1.50;;
78860;SDS011;68211;45.774;15.892;2023-04-25T13:34:42;2.53;;;1.42;;
78860;SDS011;68211;45.774;15.892;2023-04-25T13:37:08;4.28;;;1.60;;
78860;SDS011;68211;45.774;15.892;2023-04-25T13:39:35;2.97;;;1.38;;
78860;SDS011;68211;45.774;15.892;2023-04-25T13:42:01;5.28;;;1.30;;
78860;SDS011;68211;45.774;15.892;2023-04-25T13:44:27;3.90;;;1.42;;
78860;SDS011;68211;45.774;15.892;2023-04-25T13:46:57;2.50;;;1.33;;
78860;SDS011;68211;45.774;15.892;2023-04-25T13:49:23;3.72;;;1.65;;
78860;SDS011;68211;45.774;15.892;2023-04-25T13:51:50;2.00;;;1.60;;
78860;SDS011;68211;45.774;15.892;2023-04-25T13:54:16;1.50;;;1.40;;
78860;SDS011;68211;45.774;15.892;2023-04-25T13:56:43;2.10;;;1.30;;
78860;SDS011;68211;45.774;15.892;2023-04-25T13:59:09;1.88;;;1.50;;
78860;SDS011;68211;45.774;15.892;2023-04-25T14:01:36;4.40;;;1.48;;
78860;SDS011;68211;45.774;15.892;2023-04-25T14:04:03;5.15;;;1.40;;
78860;SDS011;68211;45.774;15.892;2023-04-25T14:06:30;4.78;;;1.50;;
78860;SDS011;68211;45.774;15.892;2023-04-25T14:08:57;5.28;;;1.80;;
78860;SDS011;68211;45.774;15.892;2023-04-25T14:11:24;1.80;;;1.40;;
78860;SDS011;68211;45.774;15.892;2023-04-25T14:13:50;1.67;;;1.30;;
78860;SDS011;68211;45.774;15.892;2023-04-25T14:16:17;2.63;;;1.60;;
78860;SDS011;68211;45.774;15.892;2023-04-25T14:18:44;3.47;;;1.48;;
78860;SDS011;68211;45.774;15.892;2023-04-25T14:21:12;4.47;;;1.40;;
78860;SDS011;68211;45.774;15.892;2023-04-25T14:23:39;3.50;;;1.58;;
78860;SDS011;68211;45.774;15.892;2023-04-25T14:26:05;3.60;;;1.60;;
78860;SDS011;68211;45.774;15.892;2023-04-25T14:28:32;4.85;;;1.88;;
78860;SDS011;68211;45.774;15.892;2023-04-25T14:30:58;1.65;;;1.55;;
78860;SDS011;68211;45.774;15.892;2023-04-25T14:33:27;3.65;;;1.73;;
78860;SDS011;68211;45.774;15.892;2023-04-25T14:35:55;3.72;;;2.00;;
78860;SDS011;68211;45.774;15.892;2023-04-25T14:38:23;3.50;;;1.80;;
78860;SDS011;68211;45.774;15.892;2023-04-25T14:40:50;5.03;;;1.60;;